• NOTAM LFLT

     18/05 12:00Z - 18/08/22 11:59Z
    E) CHANGEMENT EXPLOITANT AD : AEROCLUB MONTLUCON-DOMERAT TEL : 04 70 29 18 99 EMAIL : ACB.MONTLUCON.DOMERAT(AT)GMAIL.COM WEBSITE : WWW.AEROCLUB-MONTLUCON.FR REF : AD 2 LFLT TXT 02

     01/07 12:00Z - 31/12/22 11:59Z
    E) DISTANCES DECLAREES MODIFIEES: - RWY11 TORA (NIL) TODA (NIL) ASDA (NIL) LDA (700) THR11 DEPLACE DE 300M APRES L'ENTREE DE PISTE ,AVEC MARQUAGE TEMPORAIRE (CONES) - RWY29 TORA (700) TODA (1000) ASDA ( 1000) LDA (1000) LA FIN DE PISTE UTILISABLE AU DECOLLAGE PISTE 29 (TORA) EST SITUEE 300M AVANT L'EXTREMITE DE PISTE - OBSTACLES RESIDUEL APRES DEPLACEMENT DU SEUIL: PSN 462120.4N 00023340.2E 280M AVANT SEUIL DE SEUIL DE PISTE ALTITUDE : 870FT

    NOTAM LFBK

     29/04 01:04Z - 15/07/22 03:00Z
    E) PISTE 17R/35L NON-REVETUE RESERVEE AUX PLANEURS, AERONEFS DE SERVITUDE, AVIONS BASES A TRAIN CLASSIQUE ET AVIONS DE VOLTIGE A TRAIN CLASSIQUE.

     02/07 07:00Z - 09/07/22 05:00Z
    D) 02 08 09 0700-1000 1400-1700, 04-07 0700-0800 1500-1700 E) AERODROME RESERVE AUX AERONEFS BASES ET AUX PILOTES AUTORISES A EFFECTUER DE LA VOLTIGE.

     01/07 12:15Z - 06/07/22 03:00Z
    E) PISTE NON REVETUE 17R/35L FERMEE.

     12/04 02:21Z - 13/07/22 11:59Z
    E) NDB 'LPD' 398KHZ HORS SERVICE.

     02/07 07:00Z - 09/07/22 05:00Z
    D) 02 04-09 0700-1000 1300-1700 E) VOLTIGE A LE SOU, RDL281/2.3NM ARP LFBK : PSN : 461354N 0021846E AXE : 050/230 CENTRE SUR PSN LONGUEUR 2000M LARGEUR 1000M INFO: MONTLUCON INFO 118.400MHZ LIMOGES INFO 124.050MHZ F) 1500FT AGL

     02/07 07:00Z - 09/07/22 05:00Z
    D) 02 04-09 0700-1000 1300-1700 E) VOLTIGE A EVAUX CHAMBON RDL - 139/4.3NM ARP LFBK : PSN : 461015N 0022555E AXE : 140/320 CENTRE SUR PSN LONGUEUR : 2000M LARGEUR : 1000M INFO : 'MONTLUCON INFO' 118.400MHZ 'LIMOGES INFO' 124.050MHZ. F) 1500FT AGL

     02/07 07:00Z - 09/07/22 05:00Z
    D) 02 04-09 0700-1000 1400-1700 E) AXE DE VOLTIGE NR6551 MONTLUCON GUERET AERODROME MODIFIE : - LIMITE SUPERIEURE RELEVEE AU FL060 - LIMITE INFERIEURE ABAISSEE A 330FT AGL INFO DES USAGERS : MONTLUCON INFO 118.400MHZ LIMOGES INFO 124.050MHZ F) 330FT AGL











  • PHOTOS SATELLITE

CARTE TEMSI

CARTE WINTEM

  • Vent au sol

  • Vent à 2000ft

  • ANIMATION RADAR

  • METAR/TAF LFLX (CHATEAUROUX / Déols)

    LFLX 020400Z AUTO 03002KT CAVOK 08/08 Q1021 NOSIG

    TAF LFLX 012300Z 0200/0306 VRB03KT CAVOK BECMG 0304/0306 32004KT

    METAR/TAF LFBL (LIMOGES / Bellegarde)

    LFBL 010230Z AUTO 00000KT CAVOK 09/08 Q1020 TEMPO 0500 FG VV///

    TAF LFBL 292300Z 3000/3024 28008KT 9999 BKN030 FEW060CB BKN100 PROB30 TEMPO 3000/3001 30015G25KT 4000 -TSRA BECMG 3001/3003 BKN010 OVC030 TEMPO 3002/3010 3000 RA BKN004 OVC030 FEW040CB BECMG 3010/3012 20008KT BKN016 TEMPO 3015/3019 -SHRA BKN013 SCT020TCU BECMG 3019/3021 SCT030 TEMPO 3022/3024 4000 BR

    METAR/TAF LFOA

    LFOA 301030Z AUTO 30006KT 8000 RA BKN006/// BKN013/// BKN027/// //////TCU 13/12 Q1016

    METAR/TAF LFQG (NEVERS / Fourchambault)

    Aucun METAR

    METAR/TAF LFLV (VICHY / Charmeil)

    Aucun METAR

RESERVATION